sensor_id;sensor_type;location;lat;lon;timestamp;pressure;altitude;pressure_sealevel;temperature
60731;BMP280;46580;52.114;11.674;2022-11-23T00:02:13;99672.00;;;3.27
60731;BMP280;46580;52.114;11.674;2022-11-23T00:04:39;99666.56;;;3.45
60731;BMP280;46580;52.114;11.674;2022-11-23T00:07:04;99669.09;;;3.45
60731;BMP280;46580;52.114;11.674;2022-11-23T00:09:29;99670.34;;;3.26
60731;BMP280;46580;52.114;11.674;2022-11-23T00:11:55;99669.44;;;3.53
60731;BMP280;46580;52.114;11.674;2022-11-23T00:14:20;99666.16;;;3.51
60731;BMP280;46580;52.114;11.674;2022-11-23T00:16:45;99668.41;;;3.43
60731;BMP280;46580;52.114;11.674;2022-11-23T00:19:11;99674.38;;;3.42
60731;BMP280;46580;52.114;11.674;2022-11-23T00:21:36;99673.84;;;3.37
60731;BMP280;46580;52.114;11.674;2022-11-23T00:24:02;99680.56;;;3.38
60731;BMP280;46580;52.114;11.674;2022-11-23T00:26:28;99673.25;;;3.34
60731;BMP280;46580;52.114;11.674;2022-11-23T00:28:53;99682.78;;;3.31
60731;BMP280;46580;52.114;11.674;2022-11-23T00:31:19;99684.22;;;3.34
60731;BMP280;46580;52.114;11.674;2022-11-23T00:33:52;99689.69;;;3.29
60731;BMP280;46580;52.114;11.674;2022-11-23T00:36:18;99686.56;;;3.37
60731;BMP280;46580;52.114;11.674;2022-11-23T00:38:44;99692.78;;;3.46
60731;BMP280;46580;52.114;11.674;2022-11-23T00:41:20;99687.94;;;3.55
60731;BMP280;46580;52.114;11.674;2022-11-23T00:43:46;99697.16;;;3.70
60731;BMP280;46580;52.114;11.674;2022-11-23T00:46:19;99690.34;;;3.70
60731;BMP280;46580;52.114;11.674;2022-11-23T00:48:47;99698.66;;;3.60
60731;BMP280;46580;52.114;11.674;2022-11-23T00:51:21;99699.34;;;3.50
60731;BMP280;46580;52.114;11.674;2022-11-23T00:53:48;99695.44;;;3.44
60731;BMP280;46580;52.114;11.674;2022-11-23T00:56:14;99697.97;;;3.44
60731;BMP280;46580;52.114;11.674;2022-11-23T00:58:40;99694.84;;;3.53
60731;BMP280;46580;52.114;11.674;2022-11-23T01:01:11;99694.06;;;3.65
60731;BMP280;46580;52.114;11.674;2022-11-23T01:03:47;99698.13;;;3.55
60731;BMP280;46580;52.114;11.674;2022-11-23T01:06:16;99685.84;;;3.73
60731;BMP280;46580;52.114;11.674;2022-11-23T01:08:50;99694.41;;;3.72
60731;BMP280;46580;52.114;11.674;2022-11-23T01:11:17;99688.22;;;3.76
60731;BMP280;46580;52.114;11.674;2022-11-23T01:13:43;99687.16;;;3.67
60731;BMP280;46580;52.114;11.674;2022-11-23T01:16:13;99688.78;;;3.68
60731;BMP280;46580;52.114;11.674;2022-11-23T01:18:39;99687.16;;;3.67
60731;BMP280;46580;52.114;11.674;2022-11-23T01:21:05;99690.25;;;3.84
60731;BMP280;46580;52.114;11.674;2022-11-23T01:23:30;99696.44;;;3.68
60731;BMP280;46580;52.114;11.674;2022-11-23T01:25:56;99699.47;;;3.72
60731;BMP280;46580;52.114;11.674;2022-11-23T01:28:26;99693.69;;;3.71
60731;BMP280;46580;52.114;11.674;2022-11-23T01:30:52;99690.63;;;3.66
60731;BMP280;46580;52.114;11.674;2022-11-23T01:33:17;99687.03;;;3.56
60731;BMP280;46580;52.114;11.674;2022-11-23T01:35:42;99689.03;;;3.51
60731;BMP280;46580;52.114;11.674;2022-11-23T01:38:08;99694.94;;;3.52
60731;BMP280;46580;52.114;11.674;2022-11-23T01:40:41;99694.94;;;3.52
60731;BMP280;46580;52.114;11.674;2022-11-23T01:43:13;99699.81;;;3.42
60731;BMP280;46580;52.114;11.674;2022-11-23T01:45:41;99701.41;;;3.57
60731;BMP280;46580;52.114;11.674;2022-11-23T01:48:12;99700.66;;;3.55
60731;BMP280;46580;52.114;11.674;2022-11-23T01:50:39;99699.47;;;3.60
60731;BMP280;46580;52.114;11.674;2022-11-23T01:53:06;99703.41;;;3.52
60731;BMP280;46580;52.114;11.674;2022-11-23T01:55:32;99700.34;;;3.47
60731;BMP280;46580;52.114;11.674;2022-11-23T01:57:59;99696.16;;;3.46
60731;BMP280;46580;52.114;11.674;2022-11-23T02:00:24;99704.34;;;3.37
60731;BMP280;46580;52.114;11.674;2022-11-23T02:02:54;99698.22;;;3.28
60731;BMP280;46580;52.114;11.674;2022-11-23T02:05:22;99701.34;;;3.19
60731;BMP280;46580;52.114;11.674;2022-11-23T02:07:49;99703.88;;;3.19
60731;BMP280;46580;52.114;11.674;2022-11-23T02:10:15;99703.63;;;3.23
60731;BMP280;46580;52.114;11.674;2022-11-23T02:12:41;99702.41;;;3.29
60731;BMP280;46580;52.114;11.674;2022-11-23T02:15:07;99702.19;;;3.32
60731;BMP280;46580;52.114;11.674;2022-11-23T02:17:33;99705.59;;;3.44
60731;BMP280;46580;52.114;11.674;2022-11-23T02:28:15;99700.94;;;3.51
60731;BMP280;46580;52.114;11.674;2022-11-23T02:30:43;99695.34;;;3.46
60731;BMP280;46580;52.114;11.674;2022-11-23T02:33:09;99697.47;;;3.39
60731;BMP280;46580;52.114;11.674;2022-11-23T02:35:34;99696.22;;;3.33
60731;BMP280;46580;52.114;11.674;2022-11-23T02:38:01;99703.00;;;3.58
60731;BMP280;46580;52.114;11.674;2022-11-23T02:40:34;99692.31;;;3.53
60731;BMP280;46580;52.114;11.674;2022-11-23T02:43:00;99699.84;;;3.54
60731;BMP280;46580;52.114;11.674;2022-11-23T02:45:44;99703.59;;;3.49
60731;BMP280;46580;52.114;11.674;2022-11-23T02:48:11;99704.25;;;3.39
60731;BMP280;46580;52.114;11.674;2022-11-23T02:50:37;99702.03;;;3.34
60731;BMP280;46580;52.114;11.674;2022-11-23T02:53:02;99694.56;;;3.32
60731;BMP280;46580;52.114;11.674;2022-11-23T02:55:30;99702.41;;;3.29
60731;BMP280;46580;52.114;11.674;2022-11-23T02:57:56;99705.47;;;3.33
60731;BMP280;46580;52.114;11.674;2022-11-23T03:00:21;99716.31;;;3.23
60731;BMP280;46580;52.114;11.674;2022-11-23T03:02:46;99713.84;;;3.35
60731;BMP280;46580;52.114;11.674;2022-11-23T03:05:12;99722.94;;;3.26
60731;BMP280;46580;52.114;11.674;2022-11-23T03:07:37;99717.31;;;3.21
60731;BMP280;46580;52.114;11.674;2022-11-23T03:10:03;99721.03;;;3.29
60731;BMP280;46580;52.114;11.674;2022-11-23T03:12:28;99725.22;;;3.30
60731;BMP280;46580;52.114;11.674;2022-11-23T03:14:54;99720.63;;;3.35
60731;BMP280;46580;52.114;11.674;2022-11-23T03:17:19;99715.13;;;3.29
60731;BMP280;46580;52.114;11.674;2022-11-23T03:19:45;99727.59;;;3.19
60731;BMP280;46580;52.114;11.674;2022-11-23T03:22:10;99737.13;;;3.16
60731;BMP280;46580;52.114;11.674;2022-11-23T03:24:35;99734.66;;;3.28
60731;BMP280;46580;52.114;11.674;2022-11-23T03:27:01;99737.41;;;3.12
60731;BMP280;46580;52.114;11.674;2022-11-23T03:29:26;99733.41;;;3.21
60731;BMP280;46580;52.114;11.674;2022-11-23T03:31:52;99729.38;;;3.17
60731;BMP280;46580;52.114;11.674;2022-11-23T03:34:18;99726.19;;;3.02
60731;BMP280;46580;52.114;11.674;2022-11-23T03:36:43;99719.34;;;3.16
60731;BMP280;46580;52.114;11.674;2022-11-23T03:39:09;99728.56;;;3.17
60731;BMP280;46580;52.114;11.674;2022-11-23T03:41:35;99731.00;;;2.93
60731;BMP280;46580;52.114;11.674;2022-11-23T03:44:01;99728.00;;;3.00
60731;BMP280;46580;52.114;11.674;2022-11-23T03:46:26;99730.06;;;3.07
60731;BMP280;46580;52.114;11.674;2022-11-23T03:48:52;99727.09;;;2.87
60731;BMP280;46580;52.114;11.674;2022-11-23T03:51:17;99726.66;;;2.95
60731;BMP280;46580;52.114;11.674;2022-11-23T03:53:43;99729.25;;;3.07
60731;BMP280;46580;52.114;11.674;2022-11-23T03:56:08;99729.78;;;2.98
60731;BMP280;46580;52.114;11.674;2022-11-23T03:58:33;99721.22;;;2.87
60731;BMP280;46580;52.114;11.674;2022-11-23T04:00:59;99728.09;;;2.85
60731;BMP280;46580;52.114;11.674;2022-11-23T04:03:25;99723.38;;;2.79
60731;BMP280;46580;52.114;11.674;2022-11-23T04:05:50;99727.41;;;2.83
60731;BMP280;46580;52.114;11.674;2022-11-23T04:08:16;99723.00;;;2.98
60731;BMP280;46580;52.114;11.674;2022-11-23T04:10:41;99721.16;;;3.14
60731;BMP280;46580;52.114;11.674;2022-11-23T04:13:06;99719.56;;;2.99
60731;BMP280;46580;52.114;11.674;2022-11-23T04:15:32;99723.34;;;3.06
60731;BMP280;46580;52.114;11.674;2022-11-23T04:17:57;99723.56;;;2.90
60731;BMP280;46580;52.114;11.674;2022-11-23T04:20:22;99713.50;;;2.88
60731;BMP280;46580;52.114;11.674;2022-11-23T04:22:48;99717.94;;;2.85
60731;BMP280;46580;52.114;11.674;2022-11-23T04:25:13;99705.63;;;3.05
60731;BMP280;46580;52.114;11.674;2022-11-23T04:27:39;99712.47;;;2.91
60731;BMP280;46580;52.114;11.674;2022-11-23T04:30:05;99704.75;;;2.92
60731;BMP280;46580;52.114;11.674;2022-11-23T04:32:30;99701.78;;;2.86
60731;BMP280;46580;52.114;11.674;2022-11-23T04:34:56;99703.50;;;2.85
60731;BMP280;46580;52.114;11.674;2022-11-23T04:37:21;99709.63;;;2.83
60731;BMP280;46580;52.114;11.674;2022-11-23T04:39:52;99708.69;;;2.84
60731;BMP280;46580;52.114;11.674;2022-11-23T04:42:17;99708.41;;;2.88
60731;BMP280;46580;52.114;11.674;2022-11-23T04:44:42;99708.03;;;2.94
60731;BMP280;46580;52.114;11.674;2022-11-23T04:47:09;99712.31;;;2.94
60731;BMP280;46580;52.114;11.674;2022-11-23T04:49:34;99710.75;;;2.91
60731;BMP280;46580;52.114;11.674;2022-11-23T04:52:00;99715.75;;;2.93
60731;BMP280;46580;52.114;11.674;2022-11-23T04:54:25;99706.56;;;2.90
60731;BMP280;46580;52.114;11.674;2022-11-23T04:56:50;99711.13;;;2.85
60731;BMP280;46580;52.114;11.674;2022-11-23T04:59:18;99707.06;;;2.83
60731;BMP280;46580;52.114;11.674;2022-11-23T05:01:43;99704.63;;;2.81
60731;BMP280;46580;52.114;11.674;2022-11-23T05:04:09;99705.06;;;2.88
60731;BMP280;46580;52.114;11.674;2022-11-23T05:06:34;99704.00;;;3.04
60731;BMP280;46580;52.114;11.674;2022-11-23T05:08:59;99708.63;;;3.11
60731;BMP280;46580;52.114;11.674;2022-11-23T05:11:25;99693.97;;;3.02
60731;BMP280;46580;52.114;11.674;2022-11-23T05:13:51;99696.28;;;3.05
60731;BMP280;46580;52.114;11.674;2022-11-23T05:16:16;99694.66;;;3.04
60731;BMP280;46580;52.114;11.674;2022-11-23T05:18:42;99701.59;;;3.02
60731;BMP280;46580;52.114;11.674;2022-11-23T05:21:07;99699.75;;;3.04
60731;BMP280;46580;52.114;11.674;2022-11-23T05:23:32;99707.19;;;3.07
60731;BMP280;46580;52.114;11.674;2022-11-23T05:25:58;99710.94;;;3.28
60731;BMP280;46580;52.114;11.674;2022-11-23T05:28:23;99689.69;;;3.29
60731;BMP280;46580;52.114;11.674;2022-11-23T05:30:49;99687.25;;;3.27
60731;BMP280;46580;52.114;11.674;2022-11-23T05:33:14;99699.19;;;3.13
60731;BMP280;46580;52.114;11.674;2022-11-23T05:35:39;99705.00;;;3.15
60731;BMP280;46580;52.114;11.674;2022-11-23T05:38:05;99708.00;;;3.08
60731;BMP280;46580;52.114;11.674;2022-11-23T05:40:31;99713.28;;;3.05
60731;BMP280;46580;52.114;11.674;2022-11-23T05:42:57;99710.31;;;3.24
60731;BMP280;46580;52.114;11.674;2022-11-23T05:45:23;99720.84;;;3.18
60731;BMP280;46580;52.114;11.674;2022-11-23T05:47:53;99715.97;;;3.15
60731;BMP280;46580;52.114;11.674;2022-11-23T05:50:20;99717.75;;;3.27
60731;BMP280;46580;52.114;11.674;2022-11-23T05:52:45;99717.72;;;3.15
60731;BMP280;46580;52.114;11.674;2022-11-23T05:55:11;99715.88;;;3.17
60731;BMP280;46580;52.114;11.674;2022-11-23T05:57:37;99711.81;;;3.15
60731;BMP280;46580;52.114;11.674;2022-11-23T06:00:06;99719.69;;;3.10
60731;BMP280;46580;52.114;11.674;2022-11-23T06:02:31;99714.16;;;3.04
60731;BMP280;46580;52.114;11.674;2022-11-23T06:04:57;99715.72;;;3.06
60731;BMP280;46580;52.114;11.674;2022-11-23T06:07:22;99718.09;;;3.09
60731;BMP280;46580;52.114;11.674;2022-11-23T06:09:48;99716.53;;;3.07
60731;BMP280;46580;52.114;11.674;2022-11-23T06:12:13;99726.78;;;3.05
60731;BMP280;46580;52.114;11.674;2022-11-23T06:14:39;99717.28;;;3.09
60731;BMP280;46580;52.114;11.674;2022-11-23T06:17:04;99717.28;;;3.09
60731;BMP280;46580;52.114;11.674;2022-11-23T06:19:30;99718.25;;;3.06
60731;BMP280;46580;52.114;11.674;2022-11-23T06:21:56;99714.88;;;3.19
60731;BMP280;46580;52.114;11.674;2022-11-23T06:24:22;99715.13;;;3.29
60731;BMP280;46580;52.114;11.674;2022-11-23T06:26:50;99715.50;;;3.23
60731;BMP280;46580;52.114;11.674;2022-11-23T06:29:15;99716.38;;;3.35
60731;BMP280;46580;52.114;11.674;2022-11-23T06:31:41;99719.31;;;3.30
60731;BMP280;46580;52.114;11.674;2022-11-23T06:34:06;99728.06;;;3.38
60731;BMP280;46580;52.114;11.674;2022-11-23T06:36:32;99734.34;;;3.33
60731;BMP280;46580;52.114;11.674;2022-11-23T06:38:57;99742.50;;;3.37
60731;BMP280;46580;52.114;11.674;2022-11-23T06:41:23;99740.56;;;3.29
60731;BMP280;46580;52.114;11.674;2022-11-23T06:43:49;99748.00;;;3.18
60731;BMP280;46580;52.114;11.674;2022-11-23T06:46:15;99756.63;;;3.29
60731;BMP280;46580;52.114;11.674;2022-11-23T06:48:45;99748.00;;;3.18
60731;BMP280;46580;52.114;11.674;2022-11-23T06:51:11;99749.63;;;3.19
60731;BMP280;46580;52.114;11.674;2022-11-23T06:53:37;99754.34;;;3.25
60731;BMP280;46580;52.114;11.674;2022-11-23T06:56:03;99759.63;;;3.22
60731;BMP280;46580;52.114;11.674;2022-11-23T06:58:33;99755.75;;;3.16
60731;BMP280;46580;52.114;11.674;2022-11-23T07:01:03;99760.00;;;3.16
60731;BMP280;46580;52.114;11.674;2022-11-23T07:03:30;99764.16;;;3.17
60731;BMP280;46580;52.114;11.674;2022-11-23T07:05:56;99762.88;;;3.24
60731;BMP280;46580;52.114;11.674;2022-11-23T07:08:21;99760.34;;;3.24
60731;BMP280;46580;52.114;11.674;2022-11-23T07:10:47;99770.69;;;3.34
60731;BMP280;46580;52.114;11.674;2022-11-23T07:13:13;99767.22;;;3.35
60731;BMP280;46580;52.114;11.674;2022-11-23T07:15:40;99768.94;;;3.35
60731;BMP280;46580;52.114;11.674;2022-11-23T07:18:07;99772.97;;;3.51
60731;BMP280;46580;52.114;11.674;2022-11-23T07:20:33;99765.22;;;3.66
60731;BMP280;46580;52.114;11.674;2022-11-23T07:23:04;99770.97;;;3.56
60731;BMP280;46580;52.114;11.674;2022-11-23T07:25:31;99776.97;;;3.55
60731;BMP280;46580;52.114;11.674;2022-11-23T07:27:58;99766.06;;;3.53
60731;BMP280;46580;52.114;11.674;2022-11-23T07:30:25;99765.63;;;3.72
60731;BMP280;46580;52.114;11.674;2022-11-23T07:32:51;99770.59;;;3.62
60731;BMP280;46580;52.114;11.674;2022-11-23T07:35:18;99767.38;;;3.84
60731;BMP280;46580;52.114;11.674;2022-11-23T07:37:44;99774.13;;;3.85
60731;BMP280;46580;52.114;11.674;2022-11-23T07:40:10;99767.63;;;3.93
60731;BMP280;46580;52.114;11.674;2022-11-23T07:42:35;99777.47;;;3.86
60731;BMP280;46580;52.114;11.674;2022-11-23T07:45:02;99777.97;;;3.78
60731;BMP280;46580;52.114;11.674;2022-11-23T07:47:28;99772.13;;;3.90
60731;BMP280;46580;52.114;11.674;2022-11-23T07:49:53;99771.84;;;4.07
60731;BMP280;46580;52.114;11.674;2022-11-23T07:52:18;99771.50;;;3.99
60731;BMP280;46580;52.114;11.674;2022-11-23T07:54:44;99773.16;;;4.00
60731;BMP280;46580;52.114;11.674;2022-11-23T07:57:09;99779.47;;;4.07
60731;BMP280;46580;52.114;11.674;2022-11-23T07:59:35;99773.97;;;4.12
60731;BMP280;46580;52.114;11.674;2022-11-23T08:02:00;99767.13;;;4.01
60731;BMP280;46580;52.114;11.674;2022-11-23T08:04:25;99776.41;;;4.02
60731;BMP280;46580;52.114;11.674;2022-11-23T08:06:51;99775.63;;;4.13
60731;BMP280;46580;52.114;11.674;2022-11-23T08:09:17;99778.88;;;4.15
60731;BMP280;46580;52.114;11.674;2022-11-23T08:11:43;99777.91;;;4.30
60731;BMP280;46580;52.114;11.674;2022-11-23T08:14:08;99795.19;;;4.25
60731;BMP280;46580;52.114;11.674;2022-11-23T08:16:34;99791.31;;;4.20
60731;BMP280;46580;52.114;11.674;2022-11-23T08:18:59;99787.53;;;4.25
60731;BMP280;46580;52.114;11.674;2022-11-23T08:21:24;99778.22;;;4.62
60731;BMP280;46580;52.114;11.674;2022-11-23T08:23:50;99793.69;;;4.59
60731;BMP280;46580;52.114;11.674;2022-11-23T08:26:16;99793.41;;;4.76
60731;BMP280;46580;52.114;11.674;2022-11-23T08:28:41;99786.66;;;4.75
60731;BMP280;46580;52.114;11.674;2022-11-23T08:31:10;99794.09;;;4.65
60731;BMP280;46580;52.114;11.674;2022-11-23T08:33:36;99796.25;;;4.83
60731;BMP280;46580;52.114;11.674;2022-11-23T08:36:03;99796.44;;;4.81
60731;BMP280;46580;52.114;11.674;2022-11-23T08:38:29;99799.00;;;4.68
60731;BMP280;46580;52.114;11.674;2022-11-23T08:40:58;99796.66;;;4.78
60731;BMP280;46580;52.114;11.674;2022-11-23T08:43:24;99798.06;;;4.94
60731;BMP280;46580;52.114;11.674;2022-11-23T08:45:55;99797.47;;;4.90
60731;BMP280;46580;52.114;11.674;2022-11-23T08:48:21;99793.38;;;5.00
60731;BMP280;46580;52.114;11.674;2022-11-23T08:50:46;99801.00;;;5.00
60731;BMP280;46580;52.114;11.674;2022-11-23T08:53:12;99809.06;;;4.94
60731;BMP280;46580;52.114;11.674;2022-11-23T08:55:37;99803.97;;;5.19
60731;BMP280;46580;52.114;11.674;2022-11-23T08:58:03;99806.22;;;5.11
60731;BMP280;46580;52.114;11.674;2022-11-23T09:00:28;99804.66;;;5.20
60731;BMP280;46580;52.114;11.674;2022-11-23T09:02:54;99799.75;;;5.30
60731;BMP280;46580;52.114;11.674;2022-11-23T09:05:23;99794.97;;;5.25
60731;BMP280;46580;52.114;11.674;2022-11-23T09:07:48;99792.91;;;5.30
60731;BMP280;46580;52.114;11.674;2022-11-23T09:10:14;99792.94;;;5.53
60731;BMP280;46580;52.114;11.674;2022-11-23T09:12:40;99797.28;;;5.63
60731;BMP280;46580;52.114;11.674;2022-11-23T09:15:06;99789.59;;;5.75
60731;BMP280;46580;52.114;11.674;2022-11-23T09:17:31;99791.72;;;5.81
60731;BMP280;46580;52.114;11.674;2022-11-23T09:19:57;99791.53;;;5.84
60731;BMP280;46580;52.114;11.674;2022-11-23T09:22:22;99795.63;;;5.75
60731;BMP280;46580;52.114;11.674;2022-11-23T09:24:47;99800.16;;;5.71
60731;BMP280;46580;52.114;11.674;2022-11-23T09:27:13;99801.28;;;5.90
60731;BMP280;46580;52.114;11.674;2022-11-23T09:29:38;99802.31;;;5.88
60731;BMP280;46580;52.114;11.674;2022-11-23T09:32:04;99796.09;;;5.92
60731;BMP280;46580;52.114;11.674;2022-11-23T09:34:29;99798.84;;;6.12
60731;BMP280;46580;52.114;11.674;2022-11-23T09:36:57;99796.22;;;6.01
60731;BMP280;46580;52.114;11.674;2022-11-23T09:39:23;99799.84;;;6.09
60731;BMP280;46580;52.114;11.674;2022-11-23T09:42:19;99802.56;;;6.18
60731;BMP280;46580;52.114;11.674;2022-11-23T09:45:07;99801.03;;;6.16
60731;BMP280;46580;52.114;11.674;2022-11-23T09:48:13;99805.59;;;6.23
60731;BMP280;46580;52.114;11.674;2022-11-23T09:50:47;99790.44;;;6.32
60731;BMP280;46580;52.114;11.674;2022-11-23T09:53:23;99792.75;;;6.35
60731;BMP280;46580;52.114;11.674;2022-11-23T09:55:53;99793.53;;;6.25
60731;BMP280;46580;52.114;11.674;2022-11-23T09:58:21;99784.72;;;6.29
60731;BMP280;46580;52.114;11.674;2022-11-23T10:00:58;99789.53;;;6.44
60731;BMP280;46580;52.114;11.674;2022-11-23T10:03:26;99783.75;;;6.53
60731;BMP280;46580;52.114;11.674;2022-11-23T10:08:42;99786.16;;;6.54
60731;BMP280;46580;52.114;11.674;2022-11-23T10:11:40;99787.22;;;6.63
60731;BMP280;46580;52.114;11.674;2022-11-23T10:22:25;99786.31;;;6.96
60731;BMP280;46580;52.114;11.674;2022-11-23T10:24:52;99786.56;;;6.93
60731;BMP280;46580;52.114;11.674;2022-11-23T10:27:20;99775.63;;;7.02
60731;BMP280;46580;52.114;11.674;2022-11-23T10:29:46;99785.03;;;7.01
60731;BMP280;46580;52.114;11.674;2022-11-23T10:32:31;99776.78;;;7.19
60731;BMP280;46580;52.114;11.674;2022-11-23T10:35:13;99779.47;;;7.18
60731;BMP280;46580;52.114;11.674;2022-11-23T10:37:39;99780.44;;;7.58
60731;BMP280;46580;52.114;11.674;2022-11-23T10:40:17;99783.50;;;7.42
60731;BMP280;46580;52.114;11.674;2022-11-23T10:42:49;99788.03;;;7.49
60731;BMP280;46580;52.114;11.674;2022-11-23T10:45:27;99780.94;;;7.52
60731;BMP280;46580;52.114;11.674;2022-11-23T10:47:55;99788.16;;;7.47
60731;BMP280;46580;52.114;11.674;2022-11-23T10:50:25;99788.34;;;7.66
60731;BMP280;46580;52.114;11.674;2022-11-23T10:52:58;99779.94;;;7.75
60731;BMP280;46580;52.114;11.674;2022-11-23T10:55:29;99777.28;;;7.65
60731;BMP280;46580;52.114;11.674;2022-11-23T10:57:55;99777.25;;;7.76
60731;BMP280;46580;52.114;11.674;2022-11-23T11:00:21;99777.84;;;7.79
60731;BMP280;46580;52.114;11.674;2022-11-23T11:02:54;99782.16;;;8.10
60731;BMP280;46580;52.114;11.674;2022-11-23T11:05:33;99781.09;;;8.12
60731;BMP280;46580;52.114;11.674;2022-11-23T11:08:02;99780.88;;;8.15
60731;BMP280;46580;52.114;11.674;2022-11-23T11:13:44;99774.38;;;8.31
60731;BMP280;46580;52.114;11.674;2022-11-23T11:16:29;99775.03;;;8.73
60731;BMP280;46580;52.114;11.674;2022-11-23T11:18:58;99766.47;;;8.63
60731;BMP280;46580;52.114;11.674;2022-11-23T11:21:32;99770.03;;;8.72
60731;BMP280;46580;52.114;11.674;2022-11-23T11:24:04;99760.81;;;8.89
60731;BMP280;46580;52.114;11.674;2022-11-23T11:26:32;99762.69;;;8.87
60731;BMP280;46580;52.114;11.674;2022-11-23T11:29:03;99760.13;;;8.87
60731;BMP280;46580;52.114;11.674;2022-11-23T11:34:11;99749.53;;;9.58
60731;BMP280;46580;52.114;11.674;2022-11-23T11:36:45;99745.75;;;9.52
60731;BMP280;46580;52.114;11.674;2022-11-23T11:39:19;99753.16;;;9.46
60731;BMP280;46580;52.114;11.674;2022-11-23T11:41:48;99756.38;;;9.39
60731;BMP280;46580;52.114;11.674;2022-11-23T11:44:22;99758.41;;;9.35
60731;BMP280;46580;52.114;11.674;2022-11-23T11:46:53;99758.81;;;9.40
60731;BMP280;46580;52.114;11.674;2022-11-23T11:49:25;99753.13;;;9.28
60731;BMP280;46580;52.114;11.674;2022-11-23T11:51:57;99759.25;;;9.45
60731;BMP280;46580;52.114;11.674;2022-11-23T11:54:43;99767.88;;;9.35
60731;BMP280;46580;52.114;11.674;2022-11-23T11:57:32;99757.84;;;9.32
60731;BMP280;46580;52.114;11.674;2022-11-23T12:00:03;99758.53;;;9.34
60731;BMP280;46580;52.114;11.674;2022-11-23T12:05:45;99769.22;;;9.29
60731;BMP280;46580;52.114;11.674;2022-11-23T12:08:19;99765.84;;;9.38
60731;BMP280;46580;52.114;11.674;2022-11-23T12:13:18;99769.25;;;9.48
60731;BMP280;46580;52.114;11.674;2022-11-23T12:15:48;99766.94;;;9.36
60731;BMP280;46580;52.114;11.674;2022-11-23T12:21:04;99759.34;;;9.34
60731;BMP280;46580;52.114;11.674;2022-11-23T12:26:18;99761.81;;;9.36
60731;BMP280;46580;52.114;11.674;2022-11-23T12:31:48;99759.59;;;9.31
60731;BMP280;46580;52.114;11.674;2022-11-23T12:42:23;99757.41;;;9.18
60731;BMP280;46580;52.114;11.674;2022-11-23T12:53:00;99761.59;;;9.19
60731;BMP280;46580;52.114;11.674;2022-11-23T12:55:48;99750.63;;;9.17
60731;BMP280;46580;52.114;11.674;2022-11-23T12:58:28;99762.53;;;9.18
60731;BMP280;46580;52.114;11.674;2022-11-23T13:01:03;99755.69;;;9.28
60731;BMP280;46580;52.114;11.674;2022-11-23T13:09:13;99763.50;;;9.26
60731;BMP280;46580;52.114;11.674;2022-11-23T13:23:06;99757.97;;;9.78
60731;BMP280;46580;52.114;11.674;2022-11-23T13:25:32;99750.81;;;10.19
60731;BMP280;46580;52.114;11.674;2022-11-23T13:28:04;99757.84;;;10.35
60731;BMP280;46580;52.114;11.674;2022-11-23T13:33:42;99750.91;;;10.54
60731;BMP280;46580;52.114;11.674;2022-11-23T13:36:09;99747.16;;;10.21
60731;BMP280;46580;52.114;11.674;2022-11-23T13:38:40;99759.06;;;9.94
60731;BMP280;46580;52.114;11.674;2022-11-23T13:43:56;99751.06;;;9.69
60731;BMP280;46580;52.114;11.674;2022-11-23T13:46:23;99749.03;;;9.91
60731;BMP280;46580;52.114;11.674;2022-11-23T13:48:54;99740.97;;;9.96
60731;BMP280;46580;52.114;11.674;2022-11-23T13:51:31;99748.25;;;10.00
60731;BMP280;46580;52.114;11.674;2022-11-23T13:54:05;99747.19;;;10.03
60731;BMP280;46580;52.114;11.674;2022-11-23T13:56:43;99749.03;;;9.91
60731;BMP280;46580;52.114;11.674;2022-11-23T14:04:28;99750.63;;;9.74
60731;BMP280;46580;52.114;11.674;2022-11-23T14:09:49;99748.22;;;9.63
60731;BMP280;46580;52.114;11.674;2022-11-23T14:14:55;99752.63;;;9.52
60731;BMP280;46580;52.114;11.674;2022-11-23T14:20:33;99752.22;;;9.47
60731;BMP280;46580;52.114;11.674;2022-11-23T14:31:45;99761.19;;;9.23
60731;BMP280;46580;52.114;11.674;2022-11-23T14:42:50;99777.00;;;9.19
60731;BMP280;46580;52.114;11.674;2022-11-23T14:45:18;99761.72;;;9.17
60731;BMP280;46580;52.114;11.674;2022-11-23T14:47:44;99769.00;;;9.12
60731;BMP280;46580;52.114;11.674;2022-11-23T14:52:49;99761.13;;;9.05
60731;BMP280;46580;52.114;11.674;2022-11-23T14:55:20;99757.00;;;9.13
60731;BMP280;46580;52.114;11.674;2022-11-23T14:57:50;99757.97;;;8.92
60731;BMP280;46580;52.114;11.674;2022-11-23T15:00:41;99760.19;;;8.76
60731;BMP280;46580;52.114;11.674;2022-11-23T15:03:19;99756.78;;;8.67
60731;BMP280;46580;52.114;11.674;2022-11-23T15:05:52;99751.16;;;8.73
60731;BMP280;46580;52.114;11.674;2022-11-23T15:08:22;99751.53;;;8.68
60731;BMP280;46580;52.114;11.674;2022-11-23T15:13:30;99745.59;;;8.68
60731;BMP280;46580;52.114;11.674;2022-11-23T15:15:58;99753.50;;;8.55
60731;BMP280;46580;52.114;11.674;2022-11-23T15:18:32;99749.84;;;8.38
60731;BMP280;46580;52.114;11.674;2022-11-23T15:21:01;99750.78;;;8.37
60731;BMP280;46580;52.114;11.674;2022-11-23T15:23:32;99751.16;;;8.13
60731;BMP280;46580;52.114;11.674;2022-11-23T15:26:02;99752.41;;;8.18
60731;BMP280;46580;52.114;11.674;2022-11-23T15:28:34;99764.28;;;7.99
60731;BMP280;46580;52.114;11.674;2022-11-23T15:31:17;99761.28;;;7.83
60731;BMP280;46580;52.114;11.674;2022-11-23T15:33:50;99757.47;;;7.78
60731;BMP280;46580;52.114;11.674;2022-11-23T15:36:27;99757.50;;;7.57
60731;BMP280;46580;52.114;11.674;2022-11-23T15:38:54;99765.31;;;7.55
60731;BMP280;46580;52.114;11.674;2022-11-23T15:41:21;99761.41;;;7.41
60731;BMP280;46580;52.114;11.674;2022-11-23T15:43:52;99760.72;;;7.28
60731;BMP280;46580;52.114;11.674;2022-11-23T15:46:18;99764.34;;;7.15
60731;BMP280;46580;52.114;11.674;2022-11-23T15:48:47;99771.22;;;7.04
60731;BMP280;46580;52.114;11.674;2022-11-23T15:53:50;99773.19;;;6.89
60731;BMP280;46580;52.114;11.674;2022-11-23T15:56:29;99768.41;;;6.96
60731;BMP280;46580;52.114;11.674;2022-11-23T15:58:56;99777.97;;;6.94
60731;BMP280;46580;52.114;11.674;2022-11-23T16:01:22;99780.75;;;6.91
60731;BMP280;46580;52.114;11.674;2022-11-23T16:03:52;99785.53;;;6.85
60731;BMP280;46580;52.114;11.674;2022-11-23T16:06:46;99787.38;;;6.83
60731;BMP280;46580;52.114;11.674;2022-11-23T16:09:50;99793.97;;;6.74
60731;BMP280;46580;52.114;11.674;2022-11-23T16:12:27;99781.44;;;6.82
60731;BMP280;46580;52.114;11.674;2022-11-23T16:14:57;99787.69;;;6.68